Terminal Aerodrome Forecast
Issued by NWS

Home | Current Version | Previous Version | Text Only | Print | Product List | Glossary On
Versions: 1 2 3 4 5 6 7 8 9 10 11 12 13 14 15 16 17 18 19 20 21 22 23 24 25 26 27 28 29 30 31 32 33
000
FTUS43 KDLH 181900 AAA
TAFHIB
TAF AMD
KHIB 181906Z 1819/1918 15009KT P6SM SKC
     FM190400 16008KT P6SM SCT080 BKN250 WS020/20040KT
     FM190800 18011G21KT P6SM BKN080
     FM191500 20012G22KT P6SM VCSH SCT015 BKN035=

USA.gov is the U.S. government's official web portal to all federal, state and local government web resources and services.